Time;durP1;ratioP1;P1;durP2;ratioP2;P2;SDS_P1;SDS_P2;PMS_P1;PMS_P2;Temp;Humidity;BMP_temperature;BMP_pressure;BME280_temperature;BME280_humidity;BME280_pressure;Samples;Min_cycle;Max_cycle;Signal;HPM_P1;HPM_P2
2023/08/08 00:01:28;;;;;;;;;;;15.20;80.20;;;;;;5018834;23;19929;-86
2023/08/08 00:03:54;;;;;;;;;;;15.20;80.40;;;;;;5013831;28;19920;-86
2023/08/08 00:06:32;;;;;;;;;;;;;;;;;;;;;
2023/08/08 00:12:08;;;;;;;;;;;15.30;79.50;;;;;;4957095;28;19966;-86
2023/08/08 00:14:51;;;;;;;;;;;15.30;79.50;;;;;;5005225;28;19917;-86
2023/08/08 00:17:23;;;;;;;;;;;15.30;79.50;;;;;;5011583;28;20394;-86
2023/08/08 00:19:52;;;;;;;;;;;15.30;79.30;;;;;;4999342;28;19913;-86
2023/08/08 00:22:26;;;;;;;;;;;15.30;79.10;;;;;;5014482;28;19969;-86
2023/08/08 00:24:56;;;;;;;;;;;15.30;79.30;;;;;;5010532;28;20264;-86
2023/08/08 00:27:28;;;;;;;;;;;15.30;78.80;;;;;;5009524;28;19920;-86
2023/08/08 00:30:00;;;;;;;;;;;15.30;78.70;;;;;;5005993;28;19909;-86
2023/08/08 00:32:25;;;;;;;;;;;15.30;78.60;;;;;;5014194;28;19936;-86
2023/08/08 00:34:54;;;;;;;;;;;15.30;78.50;;;;;;5013698;28;19914;-86
2023/08/08 00:37:24;;;;;;;;;;;15.30;78.30;;;;;;5005156;28;20409;-86
2023/08/08 00:39:50;;;;;;;;;;;15.30;78.40;;;;;;5003168;28;20318;-86
2023/08/08 00:42:23;;;;;;;;;;;15.30;78.20;;;;;;5013234;28;19910;-86
2023/08/08 00:44:49;;;;;;;;;;;15.50;77.90;;;;;;4998243;28;20071;-86
2023/08/08 00:47:15;;;;;;;;;;;15.50;77.80;;;;;;5012820;28;20564;-86
2023/08/08 00:49:48;;;;;;;;;;;15.50;77.30;;;;;;5005163;28;19929;-86
2023/08/08 00:52:13;;;;;;;;;;;15.40;77.50;;;;;;4998280;28;20358;-87
2023/08/08 00:54:39;;;;;;;;;;;15.40;77.90;;;;;;5004266;28;19944;-86
2023/08/08 00:57:05;;;;;;;;;;;15.30;77.70;;;;;;5006566;28;19914;-86
2023/08/08 00:59:43;;;;;;;;;;;;;;;;;;;;;
2023/08/08 01:02:09;;;;;;;;;;;15.30;77.70;;;;;;5013403;28;19924;-86
2023/08/08 01:04:35;;;;;;;;;;;15.30;77.40;;;;;;5003672;28;20361;-85
2023/08/08 01:07:12;;;;;;;;;;;15.30;77.60;;;;;;5012085;28;19920;-86
2023/08/08 01:09:55;;;;;;;;;;;15.30;77.50;;;;;;5009064;28;20008;-85
2023/08/08 01:12:21;;;;;;;;;;;15.20;77.60;;;;;;5013321;28;20062;-85
2023/08/08 01:14:47;;;;;;;;;;;15.10;77.80;;;;;;5001062;28;19925;-86
2023/08/08 01:17:13;;;;;;;;;;;15.10;78.20;;;;;;5009851;28;19909;-86
2023/08/08 01:19:39;;;;;;;;;;;15.10;77.90;;;;;;5009742;28;19917;-86
2023/08/08 01:22:06;;;;;;;;;;;15.10;77.70;;;;;;5007367;28;20439;-86
2023/08/08 01:24:34;;;;;;;;;;;15.20;77.70;;;;;;5013107;28;20422;-86
2023/08/08 01:27:00;;;;;;;;;;;15.10;78.00;;;;;;5012326;28;19996;-86
2023/08/08 01:29:26;;;;;;;;;;;15.10;78.10;;;;;;5006941;28;20446;-86
2023/08/08 01:31:52;;;;;;;;;;;15.20;77.60;;;;;;4993536;28;19938;-86
2023/08/08 01:34:17;;;;;;;;;;;15.20;77.30;;;;;;5004486;28;19918;-85
2023/08/08 01:36:49;;;;;;;;;;;15.20;77.20;;;;;;5004333;28;19956;-85
2023/08/08 01:39:17;;;;;;;;;;;15.30;77.30;;;;;;5012950;28;19949;-86
2023/08/08 01:41:44;;;;;;;;;;;15.30;76.30;;;;;;5020120;28;19936;-86
2023/08/08 01:44:10;;;;;;;;;;;15.30;76.00;;;;;;5006644;28;19910;-86
2023/08/08 01:46:36;;;;;;;;;;;15.30;75.90;;;;;;5012899;28;19973;-86
2023/08/08 01:49:01;;;;;;;;;;;15.30;76.20;;;;;;5009612;28;20000;-86
2023/08/08 01:51:27;;;;;;;;;;;15.30;76.20;;;;;;5008412;28;19913;-85
2023/08/08 01:53:53;;;;;;;;;;;15.30;76.20;;;;;;5005537;28;20386;-85
2023/08/08 01:56:18;;;;;;;;;;;15.30;76.20;;;;;;5011800;28;20264;-85
2023/08/08 01:58:43;;;;;;;;;;;15.20;76.80;;;;;;5003306;28;20004;-85
2023/08/08 02:01:09;;;;;;;;;;;15.10;76.90;;;;;;5011318;28;19964;-86
2023/08/08 02:03:34;;;;;;;;;;;15.10;76.70;;;;;;5003694;28;19917;-86
2023/08/08 02:06:00;;;;;;;;;;;15.10;76.70;;;;;;5010539;28;19910;-86
2023/08/08 02:08:25;;;;;;;;;;;15.10;77.30;;;;;;5011665;28;19921;-86
2023/08/08 02:10:51;;;;;;;;;;;15.00;77.10;;;;;;5014087;28;19960;-86
2023/08/08 02:13:19;;;;;;;;;;;15.00;77.10;;;;;;5007355;28;19968;-85
2023/08/08 02:15:44;;;;;;;;;;;15.00;77.40;;;;;;5008432;28;19917;-86
2023/08/08 02:18:11;;;;;;;;;;;15.00;77.40;;;;;;5003382;28;19913;-86
2023/08/08 02:20:36;;;;;;;;;;;15.00;77.60;;;;;;5011231;28;19909;-85
2023/08/08 02:23:02;;;;;;;;;;;14.90;77.90;;;;;;5007552;28;19920;-86
2023/08/08 02:25:28;;;;;;;;;;;15.00;77.50;;;;;;5002701;28;19913;-87
2023/08/08 02:27:57;;;;;;;;;;;15.00;77.60;;;;;;5009950;28;19914;-86
2023/08/08 02:30:22;;;;;;;;;;;14.90;77.80;;;;;;5010688;28;19997;-85
2023/08/08 02:32:50;;;;;;;;;;;15.00;77.80;;;;;;5000619;28;20004;-86
2023/08/08 02:35:15;;;;;;;;;;;15.00;77.50;;;;;;5006841;28;20416;-86
2023/08/08 02:37:41;;;;;;;;;;;15.00;77.70;;;;;;5010658;28;19918;-86
2023/08/08 02:40:07;;;;;;;;;;;15.00;77.60;;;;;;5011345;28;20115;-86
2023/08/08 02:42:33;;;;;;;;;;;15.00;78.00;;;;;;5005195;28;20048;-86
2023/08/08 02:45:01;;;;;;;;;;;15.00;77.40;;;;;;5011001;28;19964;-85
2023/08/08 02:47:30;;;;;;;;;;;15.00;77.50;;;;;;5010885;28;19913;-85
2023/08/08 02:49:58;;;;;;;;;;;15.00;77.30;;;;;;5011566;28;19917;-86
2023/08/08 02:52:23;;;;;;;;;;;15.00;77.40;;;;;;5010280;28;20298;-86
2023/08/08 02:54:54;;;;;;;;;;;15.00;77.80;;;;;;5006284;28;20004;-86
2023/08/08 02:57:20;;;;;;;;;;;15.00;78.10;;;;;;5011201;28;19945;-85
2023/08/08 03:00:03;;;;;;;;;;;15.00;78.00;;;;;;4999598;28;19957;-86
2023/08/08 03:02:35;;;;;;;;;;;14.90;78.00;;;;;;5004191;28;19918;-86
2023/08/08 03:05:04;;;;;;;;;;;14.90;78.20;;;;;;5007906;28;20327;-86
2023/08/08 03:07:37;;;;;;;;;;;14.90;78.20;;;;;;5009501;28;19913;-86
2023/08/08 03:10:06;;;;;;;;;;;14.90;78.90;;;;;;4999822;28;20291;-86
2023/08/08 03:12:34;;;;;;;;;;;14.90;78.20;;;;;;5002001;28;20326;-86
2023/08/08 03:15:08;;;;;;;;;;;14.90;78.90;;;;;;5005700;28;19917;-86
2023/08/08 03:17:36;;;;;;;;;;;14.80;78.60;;;;;;5001468;28;19914;-86
2023/08/08 03:20:21;;;;;;;;;;;14.80;78.80;;;;;;5010615;28;19929;-87
2023/08/08 03:22:50;;;;;;;;;;;14.90;78.70;;;;;;5010823;28;19956;-86
2023/08/08 03:28:22;;;;;;;;;;;14.80;79.20;;;;;;5013132;28;20415;-87
2023/08/08 03:30:50;;;;;;;;;;;14.80;79.50;;;;;;4994792;28;20009;-87
2023/08/08 03:33:30;;;;;;;;;;;14.90;79.80;;;;;;4996407;28;19914;-87
2023/08/08 03:35:56;;;;;;;;;;;14.80;79.70;;;;;;4997882;28;19913;-87
2023/08/08 03:38:21;;;;;;;;;;;14.80;79.50;;;;;;5013679;28;19927;-86
2023/08/08 03:41:02;;;;;;;;;;;14.80;79.90;;;;;;5013990;28;19964;-85
2023/08/08 03:43:33;;;;;;;;;;;14.60;80.30;;;;;;5028088;28;19914;-85
2023/08/08 03:46:01;;;;;;;;;;;14.70;80.00;;;;;;5015493;28;20394;-86
2023/08/08 03:48:34;;;;;;;;;;;14.60;80.80;;;;;;5014489;28;19996;-86
2023/08/08 03:51:02;;;;;;;;;;;14.60;80.60;;;;;;5016378;28;20028;-86
2023/08/08 03:53:46;;;;;;;;;;;14.60;80.80;;;;;;5014611;28;20280;-86
2023/08/08 03:56:14;;;;;;;;;;;14.70;81.30;;;;;;5011429;28;20009;-86
2023/08/08 03:58:39;;;;;;;;;;;14.60;82.10;;;;;;5012635;28;19914;-86
2023/08/08 04:01:05;;;;;;;;;;;14.60;83.00;;;;;;5009171;28;19984;-86
2023/08/08 04:03:30;;;;;;;;;;;14.60;83.50;;;;;;4994407;28;19972;-86
2023/08/08 04:05:56;;;;;;;;;;;14.60;84.00;;;;;;5006933;28;20326;-86
2023/08/08 04:08:21;;;;;;;;;;;14.50;84.50;;;;;;5007418;28;19920;-85
2023/08/08 04:10:47;;;;;;;;;;;14.40;85.00;;;;;;5012900;28;19918;-86
2023/08/08 04:13:12;;;;;;;;;;;14.40;85.40;;;;;;5010076;28;19925;-86
2023/08/08 04:15:38;;;;;;;;;;;14.30;85.80;;;;;;4996317;28;19920;-88
2023/08/08 04:18:06;;;;;;;;;;;14.20;86.00;;;;;;4994913;28;19921;-86
2023/08/08 04:20:32;;;;;;;;;;;14.20;86.30;;;;;;5011926;28;19944;-88
2023/08/08 04:22:57;;;;;;;;;;;14.20;86.70;;;;;;5014513;28;19996;-89
2023/08/08 04:25:23;;;;;;;;;;;14.20;86.40;;;;;;5012119;28;19913;-85
2023/08/08 04:27:49;;;;;;;;;;;14.30;86.40;;;;;;5012511;28;19913;-89
2023/08/08 04:30:14;;;;;;;;;;;14.30;86.60;;;;;;5012984;28;19914;-88
2023/08/08 04:32:40;;;;;;;;;;;14.30;86.60;;;;;;5012248;28;19943;-87
2023/08/08 04:35:05;;;;;;;;;;;14.30;86.50;;;;;;5012384;28;19921;-86
2023/08/08 04:37:31;;;;;;;;;;;14.30;86.40;;;;;;5005590;28;19987;-86
2023/08/08 04:39:56;;;;;;;;;;;14.30;86.50;;;;;;5015071;28;20350;-87
2023/08/08 04:42:22;;;;;;;;;;;14.30;86.40;;;;;;5007249;28;19921;-87
2023/08/08 04:44:47;;;;;;;;;;;14.30;86.30;;;;;;5013607;28;19916;-87
2023/08/08 04:47:13;;;;;;;;;;;14.30;86.40;;;;;;5012524;28;19917;-88
2023/08/08 04:49:38;;;;;;;;;;;14.30;86.80;;;;;;5009188;28;20119;-86
2023/08/08 04:52:04;;;;;;;;;;;14.30;86.30;;;;;;5007736;28;19917;-86
2023/08/08 04:54:32;;;;;;;;;;;14.30;86.40;;;;;;5005496;28;20000;-87
2023/08/08 04:57:07;;;;;;;;;;;14.40;86.40;;;;;;5012923;28;19920;-90
2023/08/08 04:59:33;;;;;;;;;;;14.40;86.50;;;;;;5013371;28;19918;-86
2023/08/08 05:01:58;;;;;;;;;;;14.40;86.60;;;;;;5008987;28;19989;-87
2023/08/08 05:04:24;;;;;;;;;;;14.50;86.70;;;;;;5024702;28;19910;-87
2023/08/08 05:06:49;;;;;;;;;;;14.40;86.60;;;;;;5006576;28;19960;-87
2023/08/08 05:09:37;;;;;;;;;;;14.40;86.40;;;;;;5014736;28;20251;-87
2023/08/08 05:12:03;;;;;;;;;;;14.40;86.40;;;;;;5007260;28;19944;-88
2023/08/08 05:14:28;;;;;;;;;;;14.30;86.80;;;;;;5005795;28;19917;-87
2023/08/08 05:16:54;;;;;;;;;;;14.50;86.70;;;;;;5013027;28;19909;-86
2023/08/08 05:19:19;;;;;;;;;;;14.50;86.60;;;;;;5011285;28;20036;-87
2023/08/08 05:21:45;;;;;;;;;;;14.50;86.80;;;;;;5007166;28;19921;-87
2023/08/08 05:24:10;;;;;;;;;;;14.50;86.90;;;;;;5008232;28;20002;-86
2023/08/08 05:26:35;;;;;;;;;;;14.50;86.60;;;;;;5008202;28;19914;-86
2023/08/08 05:29:01;;;;;;;;;;;14.50;86.70;;;;;;4995081;28;20012;-86
2023/08/08 05:31:34;;;;;;;;;;;14.60;86.40;;;;;;4994726;28;19910;-89
2023/08/08 05:33:59;;;;;;;;;;;14.50;86.60;;;;;;5012276;28;19917;-87
2023/08/08 05:36:25;;;;;;;;;;;14.60;86.60;;;;;;5004736;28;19909;-87
2023/08/08 05:38:50;;;;;;;;;;;14.60;86.70;;;;;;5012239;28;19924;-87
2023/08/08 05:41:15;;;;;;;;;;;14.60;86.60;;;;;;4993694;28;20287;-87
2023/08/08 05:43:42;;;;;;;;;;;14.50;87.00;;;;;;4993101;28;19918;-87
2023/08/08 05:46:08;;;;;;;;;;;14.60;87.00;;;;;;4993006;28;19914;-87
2023/08/08 05:48:33;;;;;;;;;;;14.50;86.70;;;;;;4993471;28;19959;-87
2023/08/08 05:50:59;;;;;;;;;;;14.60;86.70;;;;;;4995678;28;20287;-87
2023/08/08 05:53:25;;;;;;;;;;;14.60;86.70;;;;;;5011739;28;19928;-87
2023/08/08 05:55:52;;;;;;;;;;;14.60;86.50;;;;;;5010797;28;22619;-87
2023/08/08 05:58:17;;;;;;;;;;;14.60;86.80;;;;;;5013585;28;20415;-87
2023/08/08 06:00:43;;;;;;;;;;;14.60;86.80;;;;;;5011649;28;19917;-88
2023/08/08 06:03:08;;;;;;;;;;;14.60;86.70;;;;;;5012329;28;20614;-87
2023/08/08 06:05:34;;;;;;;;;;;14.70;86.50;;;;;;5011952;28;20434;-87
2023/08/08 06:07:59;;;;;;;;;;;14.70;86.70;;;;;;5012260;28;19909;-87
2023/08/08 06:10:28;;;;;;;;;;;14.70;86.70;;;;;;5011911;28;19916;-87
2023/08/08 06:12:53;;;;;;;;;;;14.80;86.60;;;;;;5012453;28;20341;-86
2023/08/08 06:15:36;;;;;;;;;;;14.80;86.60;;;;;;5012192;28;20004;-87
2023/08/08 06:18:01;;;;;;;;;;;14.80;86.50;;;;;;5012935;28;19918;-87
2023/08/08 06:20:34;;;;;;;;;;;14.80;86.20;;;;;;4993238;28;19909;-87
2023/08/08 06:23:09;;;;;;;;;;;14.80;86.40;;;;;;5007741;28;19924;-87
2023/08/08 06:25:38;;;;;;;;;;;14.80;86.60;;;;;;5013124;28;19929;-87
2023/08/08 06:28:04;;;;;;;;;;;14.80;86.70;;;;;;5011741;28;19972;-88
2023/08/08 06:30:32;;;;;;;;;;;14.80;86.40;;;;;;5011874;28;19960;-87
2023/08/08 06:32:58;;;;;;;;;;;14.80;86.50;;;;;;5011808;28;19913;-87
2023/08/08 06:35:31;;;;;;;;;;;14.90;86.30;;;;;;5011105;28;19909;-87
2023/08/08 06:37:56;;;;;;;;;;;14.90;86.40;;;;;;5011825;28;20383;-87
2023/08/08 06:40:23;;;;;;;;;;;14.80;86.70;;;;;;5011660;28;19916;-87
2023/08/08 06:42:49;;;;;;;;;;;14.90;86.60;;;;;;5009983;28;19913;-87
2023/08/08 06:45:21;;;;;;;;;;;15.00;86.10;;;;;;5006960;28;19909;-86
2023/08/08 06:47:47;;;;;;;;;;;15.00;86.20;;;;;;5014202;28;19914;-86
2023/08/08 06:50:12;;;;;;;;;;;15.00;85.60;;;;;;5011553;28;19914;-86
2023/08/08 06:52:40;;;;;;;;;;;15.10;86.00;;;;;;5000834;28;20020;-88
2023/08/08 06:55:09;;;;;;;;;;;15.10;85.80;;;;;;5013595;28;20441;-87
2023/08/08 06:57:35;;;;;;;;;;;15.00;85.90;;;;;;5010831;28;19968;-87
2023/08/08 07:00:01;;;;;;;;;;;15.10;85.70;;;;;;5005448;28;20268;-88
2023/08/08 07:02:26;;;;;;;;;;;15.10;85.70;;;;;;5011637;28;19925;-89
2023/08/08 07:05:06;;;;;;;;;;;15.20;85.90;;;;;;4991560;28;19910;-88
2023/08/08 07:07:35;;;;;;;;;;;15.20;85.40;;;;;;4992967;28;19949;-89
2023/08/08 07:10:00;;;;;;;;;;;15.30;85.70;;;;;;4998592;28;19921;-88
2023/08/08 07:12:28;;;;;;;;;;;15.40;85.00;;;;;;5010985;28;19914;-88
2023/08/08 07:15:20;;;;;;;;;;;15.50;85.20;;;;;;5004241;28;20387;-89
2023/08/08 07:18:09;;;;;;;;;;;15.50;84.90;;;;;;5009178;28;20375;-88
2023/08/08 07:20:56;;;;;;;;;;;;;;;;;;;;;
2023/08/08 07:23:22;;;;;;;;;;;15.60;84.30;;;;;;4997270;28;19918;-88
2023/08/08 07:25:48;;;;;;;;;;;15.80;84.10;;;;;;4998772;28;20391;-88
2023/08/08 07:28:27;;;;;;;;;;;16.00;83.10;;;;;;5010168;28;19914;-89
2023/08/08 07:30:53;;;;;;;;;;;16.00;82.50;;;;;;5012381;28;19944;-88
2023/08/08 07:33:19;;;;;;;;;;;16.00;82.40;;;;;;5004475;28;19969;-88
2023/08/08 07:35:54;;;;;;;;;;;;;;;;;;;;;
2023/08/08 07:38:24;;;;;;;;;;;16.20;82.40;;;;;;4997915;28;19960;-87
2023/08/08 07:40:50;;;;;;;;;;;16.20;82.70;;;;;;4997768;28;19910;-87
2023/08/08 07:43:21;;;;;;;;;;;16.20;81.60;;;;;;5005761;28;20385;-89
2023/08/08 07:46:30;;;;;;;;;;;16.10;82.10;;;;;;5008142;28;19951;-89
2023/08/08 07:48:59;;;;;;;;;;;16.20;81.70;;;;;;5003204;28;19960;-87
2023/08/08 07:51:27;;;;;;;;;;;16.30;81.90;;;;;;5009880;28;19910;-88
2023/08/08 07:53:53;;;;;;;;;;;16.10;82.00;;;;;;5002239;28;19914;-87
2023/08/08 07:56:22;;;;;;;;;;;16.20;81.60;;;;;;5004456;28;20016;-88
2023/08/08 07:58:49;;;;;;;;;;;16.20;81.90;;;;;;4994273;28;20335;-87
2023/08/08 08:01:15;;;;;;;;;;;16.40;81.70;;;;;;5001295;28;19937;-87
2023/08/08 08:03:41;;;;;;;;;;;16.40;80.90;;;;;;5005142;28;19917;-87
2023/08/08 08:06:07;;;;;;;;;;;16.50;80.90;;;;;;5011150;28;20008;-88
2023/08/08 08:08:32;;;;;;;;;;;16.50;80.50;;;;;;5007652;28;19956;-88
2023/08/08 08:10:58;;;;;;;;;;;16.50;80.70;;;;;;4989794;28;19913;-88
2023/08/08 08:13:23;;;;;;;;;;;16.60;80.40;;;;;;4990786;28;19952;-88
2023/08/08 08:15:49;;;;;;;;;;;16.60;80.20;;;;;;5001320;28;20303;-88
2023/08/08 08:18:16;;;;;;;;;;;16.70;79.50;;;;;;5001429;28;19910;-89
2023/08/08 08:20:42;;;;;;;;;;;16.80;78.90;;;;;;4996552;28;20355;-88
2023/08/08 08:23:08;;;;;;;;;;;16.80;79.00;;;;;;5007491;28;19956;-88
2023/08/08 08:25:33;;;;;;;;;;;17.00;78.00;;;;;;5011062;28;20055;-89
2023/08/08 08:27:59;;;;;;;;;;;17.10;77.20;;;;;;5003180;28;19914;-88
2023/08/08 08:30:26;;;;;;;;;;;17.10;77.00;;;;;;4994590;28;20316;-88
2023/08/08 08:32:52;;;;;;;;;;;17.10;77.40;;;;;;4997473;28;19917;-88
2023/08/08 08:35:17;;;;;;;;;;;17.20;76.70;;;;;;5012428;28;20035;-88
2023/08/08 08:37:43;;;;;;;;;;;17.20;76.00;;;;;;5009457;28;20371;-88
2023/08/08 08:40:09;;;;;;;;;;;17.30;76.50;;;;;;4994188;28;19910;-88
2023/08/08 08:42:35;;;;;;;;;;;17.30;76.40;;;;;;4992721;28;19909;-88
2023/08/08 08:45:01;;;;;;;;;;;17.50;75.30;;;;;;5000952;28;19916;-88
2023/08/08 08:47:29;;;;;;;;;;;17.60;76.10;;;;;;5000388;28;19909;-88
2023/08/08 08:49:55;;;;;;;;;;;17.80;75.10;;;;;;5005541;28;19909;-88
2023/08/08 08:52:20;;;;;;;;;;;18.00;75.10;;;;;;5006047;28;19937;-88
2023/08/08 08:54:46;;;;;;;;;;;18.00;74.50;;;;;;5000900;28;19995;-89
2023/08/08 08:57:11;;;;;;;;;;;18.10;74.00;;;;;;4992470;28;20000;-88
2023/08/08 08:59:37;;;;;;;;;;;18.20;73.70;;;;;;5008960;28;19909;-87
2023/08/08 09:02:02;;;;;;;;;;;18.40;72.90;;;;;;4992494;28;20348;-89
2023/08/08 09:04:28;;;;;;;;;;;18.50;71.50;;;;;;5000537;28;20335;-89
2023/08/08 09:06:54;;;;;;;;;;;18.50;71.50;;;;;;5009062;28;19989;-88
2023/08/08 09:09:21;;;;;;;;;;;18.60;71.00;;;;;;4992709;28;20000;-88
2023/08/08 09:11:48;;;;;;;;;;;18.80;71.30;;;;;;5002795;28;19921;-89
2023/08/08 09:14:23;;;;;;;;;;;18.60;69.50;;;;;;4997932;28;19914;-88
2023/08/08 09:16:49;;;;;;;;;;;18.50;70.20;;;;;;5000618;28;19909;-89
2023/08/08 09:19:15;;;;;;;;;;;18.30;69.30;;;;;;5008361;28;19920;-88
2023/08/08 09:21:40;;;;;;;;;;;18.30;69.40;;;;;;5012771;28;19909;-88
2023/08/08 09:24:06;;;;;;;;;;;18.10;70.30;;;;;;4998756;28;19910;-88
2023/08/08 09:26:32;;;;;;;;;;;18.20;70.80;;;;;;4993381;28;19977;-89
2023/08/08 09:28:58;;;;;;;;;;;18.20;72.00;;;;;;5011872;28;19921;-88
2023/08/08 09:31:26;;;;;;;;;;;18.30;69.40;;;;;;4996138;28;19910;-88
2023/08/08 09:33:59;;;;;;;;;;;18.30;69.10;;;;;;5000898;28;20343;-89
2023/08/08 09:36:25;;;;;;;;;;;18.40;70.10;;;;;;4991971;28;19913;-88
2023/08/08 09:38:51;;;;;;;;;;;18.50;68.60;;;;;;5008308;28;19963;-87
2023/08/08 09:41:16;;;;;;;;;;;18.50;69.00;;;;;;4997025;28;19945;-88
2023/08/08 09:43:44;;;;;;;;;;;18.60;69.10;;;;;;5001305;28;19910;-88
2023/08/08 09:46:10;;;;;;;;;;;18.50;69.20;;;;;;4992965;28;19929;-89
2023/08/08 09:48:37;;;;;;;;;;;18.30;69.40;;;;;;4991438;28;19910;-87
2023/08/08 09:51:04;;;;;;;;;;;18.20;69.30;;;;;;4995793;28;19940;-86
2023/08/08 09:53:30;;;;;;;;;;;18.30;69.30;;;;;;5002738;28;19980;-87
2023/08/08 09:55:56;;;;;;;;;;;18.30;69.60;;;;;;4996999;28;19909;-87
2023/08/08 09:58:21;;;;;;;;;;;18.40;69.60;;;;;;4999280;28;20053;-86
2023/08/08 10:00:50;;;;;;;;;;;18.50;68.20;;;;;;4991804;28;20414;-87
2023/08/08 10:03:16;;;;;;;;;;;18.70;68.20;;;;;;5006357;28;19917;-86
2023/08/08 10:05:42;;;;;;;;;;;18.90;65.40;;;;;;5001638;28;20445;-91
2023/08/08 10:08:08;;;;;;;;;;;19.00;66.80;;;;;;4997395;28;19910;-87
2023/08/08 10:10:34;;;;;;;;;;;19.20;65.90;;;;;;4991861;28;19913;-87
2023/08/08 10:12:59;;;;;;;;;;;19.40;65.10;;;;;;4992235;28;19914;-88
2023/08/08 10:15:26;;;;;;;;;;;19.50;64.10;;;;;;5001098;28;19960;-89
2023/08/08 10:17:54;;;;;;;;;;;19.50;66.20;;;;;;5001801;28;19924;-88
2023/08/08 10:20:19;;;;;;;;;;;19.50;66.40;;;;;;4995764;28;19922;-88
2023/08/08 10:22:46;;;;;;;;;;;19.30;66.60;;;;;;5009836;28;19909;-86
2023/08/08 10:25:19;;;;;;;;;;;19.00;66.60;;;;;;5008731;28;20001;-87
2023/08/08 10:27:45;;;;;;;;;;;18.70;66.60;;;;;;5002926;28;19913;-87
2023/08/08 10:30:13;;;;;;;;;;;18.50;68.00;;;;;;5007304;28;19924;-88
2023/08/08 10:32:50;;;;;;;;;;;18.30;68.50;;;;;;5004069;28;19963;-87
2023/08/08 10:35:16;;;;;;;;;;;18.20;69.00;;;;;;5004466;28;20247;-87
2023/08/08 10:37:51;;;;;;;;;;;18.10;68.30;;;;;;5004791;28;19967;-88
2023/08/08 10:40:18;;;;;;;;;;;18.10;68.80;;;;;;5003700;28;19913;-86
2023/08/08 10:42:45;;;;;;;;;;;18.10;68.60;;;;;;5001361;28;19983;-86
2023/08/08 10:45:14;;;;;;;;;;;18.00;68.80;;;;;;5002362;28;19909;-87
2023/08/08 10:47:40;;;;;;;;;;;18.10;69.10;;;;;;4991436;28;20352;-87
2023/08/08 10:50:11;;;;;;;;;;;18.20;69.10;;;;;;5006122;28;19960;-88
2023/08/08 10:52:54;;;;;;;;;;;18.10;68.10;;;;;;5009203;28;19921;-87
2023/08/08 10:55:21;;;;;;;;;;;18.00;67.80;;;;;;5006358;28;20393;-88
2023/08/08 10:58:03;;;;;;;;;;;18.00;68.00;;;;;;5007288;28;20004;-88
2023/08/08 11:00:30;;;;;;;;;;;17.80;68.10;;;;;;4992260;28;19994;-86
2023/08/08 11:02:56;;;;;;;;;;;17.70;68.30;;;;;;5005342;28;19924;-86
2023/08/08 11:05:22;;;;;;;;;;;17.60;68.60;;;;;;4996369;28;20000;-86
2023/08/08 11:07:48;;;;;;;;;;;17.60;68.50;;;;;;4998448;28;19975;-86
2023/08/08 11:10:14;;;;;;;;;;;17.50;68.80;;;;;;4991684;28;20414;-86
2023/08/08 11:12:39;;;;;;;;;;;17.50;70.30;;;;;;4995599;28;19929;-87
2023/08/08 11:15:05;;;;;;;;;;;17.50;72.30;;;;;;5002001;28;19984;-87
2023/08/08 11:17:31;;;;;;;;;;;17.30;74.00;;;;;;4995089;28;19913;-86
2023/08/08 11:19:57;;;;;;;;;;;17.30;73.70;;;;;;4989778;28;19910;-87
2023/08/08 11:22:23;;;;;;;;;;;17.20;74.60;;;;;;4989788;28;19925;-86
2023/08/08 11:24:51;;;;;;;;;;;17.10;74.60;;;;;;4989611;28;19952;-86
2023/08/08 11:27:17;;;;;;;;;;;17.10;74.40;;;;;;4991134;28;20343;-86
2023/08/08 11:29:49;;;;;;;;;;;17.10;74.80;;;;;;4989764;28;20005;-87
2023/08/08 11:32:14;;;;;;;;;;;17.10;75.60;;;;;;4989559;28;20009;-86
2023/08/08 11:34:40;;;;;;;;;;;17.40;73.60;;;;;;4989536;28;20017;-87
2023/08/08 11:37:05;;;;;;;;;;;17.60;71.30;;;;;;4993812;28;19910;-88
2023/08/08 11:39:31;;;;;;;;;;;18.00;71.30;;;;;;4994351;28;19965;-86
2023/08/08 11:41:57;;;;;;;;;;;18.10;69.30;;;;;;4989395;28;19909;-86
2023/08/08 11:44:22;;;;;;;;;;;18.10;70.00;;;;;;4989511;28;19933;-86
2023/08/08 11:46:48;;;;;;;;;;;18.10;68.60;;;;;;5008895;28;19972;-86
2023/08/08 11:49:15;;;;;;;;;;;18.10;68.50;;;;;;5011608;28;19909;-86
2023/08/08 11:51:42;;;;;;;;;;;18.20;69.10;;;;;;5013778;28;19913;-86
2023/08/08 11:54:08;;;;;;;;;;;18.30;68.40;;;;;;5012882;28;20375;-86
2023/08/08 11:56:34;;;;;;;;;;;18.50;67.20;;;;;;5010063;28;19917;-86
2023/08/08 11:58:59;;;;;;;;;;;18.60;66.90;;;;;;5007625;28;20434;-91
2023/08/08 12:01:25;;;;;;;;;;;18.70;66.60;;;;;;5012333;28;19914;-87
2023/08/08 12:03:51;;;;;;;;;;;18.90;65.60;;;;;;5011066;28;19936;-88
2023/08/08 12:06:17;;;;;;;;;;;18.90;65.90;;;;;;5004353;28;19909;-88
2023/08/08 12:08:43;;;;;;;;;;;19.00;66.10;;;;;;4995232;28;20391;-88
2023/08/08 12:11:09;;;;;;;;;;;19.00;64.00;;;;;;4992840;28;19936;-88
2023/08/08 12:13:36;;;;;;;;;;;19.20;65.10;;;;;;5001166;28;19921;-89
2023/08/08 12:16:04;;;;;;;;;;;19.40;64.80;;;;;;5008446;28;20286;-88
2023/08/08 12:18:30;;;;;;;;;;;19.60;64.50;;;;;;4999701;28;19919;-87
2023/08/08 12:20:55;;;;;;;;;;;19.80;64.50;;;;;;5003171;28;19917;-86
2023/08/08 12:23:21;;;;;;;;;;;20.00;64.70;;;;;;5005820;28;20272;-86
2023/08/08 12:25:46;;;;;;;;;;;20.10;63.50;;;;;;5000682;28;20450;-86
2023/08/08 12:28:12;;;;;;;;;;;20.00;64.40;;;;;;4992748;28;20039;-86
2023/08/08 12:30:37;;;;;;;;;;;19.90;63.30;;;;;;5006915;28;20553;-85
2023/08/08 12:33:05;;;;;;;;;;;19.70;63.80;;;;;;5010988;28;19922;-87
2023/08/08 12:35:33;;;;;;;;;;;19.80;63.20;;;;;;5009154;28;19914;-88
2023/08/08 12:37:58;;;;;;;;;;;19.80;61.10;;;;;;5012334;28;20054;-87
2023/08/08 12:40:28;;;;;;;;;;;19.90;61.40;;;;;;5012195;28;19909;-87
2023/08/08 12:43:02;;;;;;;;;;;20.00;61.30;;;;;;5011116;28;19920;-87
2023/08/08 12:45:35;;;;;;;;;;;20.10;62.10;;;;;;5010652;28;20008;-86
2023/08/08 12:48:01;;;;;;;;;;;20.10;60.90;;;;;;5008585;28;19920;-86
2023/08/08 12:50:28;;;;;;;;;;;20.20;60.20;;;;;;5011842;28;19952;-88
2023/08/08 12:52:53;;;;;;;;;;;20.20;60.90;;;;;;5007447;28;19917;-86
2023/08/08 12:55:54;;;;;;;;;;;20.10;60.50;;;;;;5009165;28;20387;-86
2023/08/08 12:58:30;;;;;;;;;;;20.10;59.70;;;;;;5007766;28;19924;-85
2023/08/08 13:00:58;;;;;;;;;;;20.30;59.50;;;;;;5010162;28;19965;-87
2023/08/08 13:03:30;;;;;;;;;;;20.50;59.50;;;;;;5012436;28;20401;-86
2023/08/08 13:12:13;;;;;;;;;;;20.10;62.40;;;;;;5006483;28;19948;-86
2023/08/08 13:14:38;;;;;;;;;;;20.00;63.00;;;;;;5009123;28;19925;-84
2023/08/08 13:17:04;;;;;;;;;;;19.80;62.60;;;;;;5007032;28;20260;-85
2023/08/08 13:19:29;;;;;;;;;;;19.70;63.80;;;;;;5009927;28;19932;-85
2023/08/08 13:21:55;;;;;;;;;;;19.50;65.70;;;;;;5011252;28;20021;-87
2023/08/08 13:24:22;;;;;;;;;;;19.50;66.30;;;;;;5004876;28;20283;-83
2023/08/08 13:26:48;;;;;;;;;;;19.40;66.80;;;;;;5007794;28;19913;-83
2023/08/08 13:29:14;;;;;;;;;;;19.40;66.90;;;;;;5005840;28;19917;-84
2023/08/08 13:31:39;;;;;;;;;;;19.40;66.80;;;;;;5002867;28;19965;-84
2023/08/08 13:34:05;;;;;;;;;;;19.20;66.20;;;;;;5010141;28;19917;-84
2023/08/08 13:36:31;;;;;;;;;;;19.00;66.60;;;;;;5010468;28;19921;-84
2023/08/08 13:38:56;;;;;;;;;;;19.00;67.60;;;;;;5010182;28;19921;-84
2023/08/08 13:41:22;;;;;;;;;;;19.00;67.70;;;;;;5006718;28;19918;-83
2023/08/08 13:43:47;;;;;;;;;;;19.00;67.40;;;;;;5012505;28;19913;-87
2023/08/08 13:46:18;;;;;;;;;;;19.10;66.70;;;;;;5012977;28;19918;-86
2023/08/08 13:48:44;;;;;;;;;;;19.00;66.50;;;;;;5010086;28;19957;-87
2023/08/08 13:51:12;;;;;;;;;;;19.00;66.40;;;;;;5010261;28;19983;-88
2023/08/08 13:53:37;;;;;;;;;;;19.20;66.40;;;;;;5006163;28;19925;-87
2023/08/08 13:56:03;;;;;;;;;;;19.30;65.50;;;;;;4997768;28;20310;-89
2023/08/08 13:58:29;;;;;;;;;;;19.40;64.00;;;;;;5003453;28;19914;-86
2023/08/08 14:00:57;;;;;;;;;;;19.50;63.50;;;;;;4998802;28;20372;-86
2023/08/08 14:03:26;;;;;;;;;;;19.60;62.80;;;;;;5005951;28;19927;-86
2023/08/08 14:05:54;;;;;;;;;;;19.70;61.20;;;;;;5012026;28;19920;-86
2023/08/08 14:08:20;;;;;;;;;;;19.80;61.50;;;;;;5012589;28;19955;-86
2023/08/08 14:10:46;;;;;;;;;;;19.80;60.90;;;;;;5010847;28;19910;-86
2023/08/08 14:13:45;;;;;;;;;;;19.70;59.90;;;;;;5010547;28;19935;-86
2023/08/08 14:16:20;;;;;;;;;;;19.70;61.00;;;;;;5010977;28;19913;-86
2023/08/08 14:19:12;;;;;;;;;;;19.50;60.30;;;;;;5010370;28;19953;-85
2023/08/08 14:21:38;;;;;;;;;;;19.40;61.30;;;;;;5010186;28;19918;-85
2023/08/08 14:24:03;;;;;;;;;;;19.50;60.80;;;;;;5007449;28;19964;-84
2023/08/08 14:29:34;;;;;;;;;;;;;;;;;;;;;
2023/08/08 14:32:21;;;;;;;;;;;19.60;60.40;;;;;;4998125;28;19920;-86
2023/08/08 14:34:46;;;;;;;;;;;19.50;60.20;;;;;;4995675;28;19917;-85
2023/08/08 14:37:18;;;;;;;;;;;19.30;61.30;;;;;;5005253;28;19972;-85
2023/08/08 14:39:43;;;;;;;;;;;19.30;60.90;;;;;;5002155;28;19914;-85
2023/08/08 14:42:09;;;;;;;;;;;19.30;61.20;;;;;;4994667;28;19921;-85